createdAt,value
2023-03-29T00:04:14.373Z,2.73
2023-03-29T00:09:18.784Z,2.73
2023-03-29T00:14:21.947Z,2.70
2023-03-29T00:19:25.357Z,2.63
2023-03-29T00:24:28.467Z,2.80
2023-03-29T00:29:31.562Z,2.40
2023-03-29T00:34:36.656Z,2.80
2023-03-29T00:39:42.652Z,3.40
2023-03-29T00:44:58.229Z,2.87
2023-03-29T00:50:07.320Z,2.97
2023-03-29T00:55:18.369Z,3.90
2023-03-29T01:00:23.858Z,3.00
2023-03-29T01:05:31.659Z,3.37
2023-03-29T01:10:42.114Z,3.47
2023-03-29T01:15:46.478Z,2.80
2023-03-29T01:20:57.087Z,3.33
2023-03-29T01:26:10.227Z,3.60
2023-03-29T01:31:25.512Z,2.80
2023-03-29T01:36:35.342Z,3.40
2023-03-29T01:41:55.696Z,3.00
2023-03-29T01:47:11.654Z,4.13
2023-03-29T01:52:18.809Z,3.97
2023-03-29T01:57:25.439Z,3.77
2023-03-29T02:02:29.695Z,3.27
2023-03-29T02:07:38.410Z,3.73
2023-03-29T02:12:41.918Z,3.10
2023-03-29T02:17:45.169Z,2.97
2023-03-29T02:22:52.877Z,2.83
2023-03-29T02:27:56.600Z,4.30
2023-03-29T02:33:14.421Z,4.80
2023-03-29T02:38:19.256Z,4.10
2023-03-29T02:43:25.760Z,4.17
2023-03-29T02:48:30.268Z,5.10
2023-03-29T02:53:40.821Z,4.10
2023-03-29T02:58:44.023Z,4.30
2023-03-29T03:03:48.267Z,4.37
2023-03-29T03:08:52.045Z,3.97
2023-03-29T03:13:55.011Z,3.97
2023-03-29T03:18:58.051Z,4.10
2023-03-29T03:24:01.201Z,4.47
2023-03-29T03:29:04.244Z,3.77
2023-03-29T03:34:27.941Z,4.73
2023-03-29T03:39:37.045Z,3.93
2023-03-29T03:44:42.407Z,4.00
2023-03-29T03:50:06.259Z,4.43
2023-03-29T03:55:09.646Z,4.33
2023-03-29T04:00:35.650Z,3.97
2023-03-29T04:06:04.057Z,4.33
2023-03-29T04:11:24.150Z,4.17
2023-03-29T04:16:27.888Z,3.80
2023-03-29T04:21:34.798Z,3.90
2023-03-29T04:26:38.446Z,3.70
2023-03-29T04:31:48.798Z,4.07
2023-03-29T04:37:24.047Z,4.53
2023-03-29T04:42:29.776Z,4.37
2023-03-29T04:47:33.138Z,4.10
2023-03-29T04:52:46.391Z,4.60
2023-03-29T04:57:49.518Z,5.07
2023-03-29T05:02:58.155Z,4.70
2023-03-29T05:08:02.177Z,4.43
2023-03-29T05:13:14.944Z,5.47
2023-03-29T05:18:17.953Z,4.77
2023-03-29T05:23:21.767Z,5.27
2023-03-29T05:28:57.627Z,7.40
2023-03-29T05:34:01.683Z,6.23
2023-03-29T05:39:07.170Z,11.77
2023-03-29T05:44:11.883Z,7.93
2023-03-29T05:49:18.287Z,8.80
2023-03-29T05:54:38.456Z,5.57
2023-03-29T05:59:42.706Z,5.97
2023-03-29T06:04:47.057Z,5.67
2023-03-29T06:09:59.020Z,7.23
2023-03-29T06:15:05.318Z,19.77
2023-03-29T06:20:17.336Z,9.60
2023-03-29T06:25:25.383Z,5.90
2023-03-29T06:30:29.184Z,5.60
2023-03-29T06:35:34.918Z,7.60
2023-03-29T06:40:44.781Z,5.10
2023-03-29T06:45:48.102Z,5.10
2023-03-29T06:51:05.110Z,6.87
2023-03-29T06:56:10.069Z,4.93
2023-03-29T07:01:18.495Z,4.20
2023-03-29T07:06:27.097Z,6.77
2023-03-29T07:11:32.184Z,4.27
2023-03-29T07:16:47.412Z,4.90
2023-03-29T07:21:55.279Z,3.70
2023-03-29T07:27:07.575Z,4.57
2023-03-29T07:32:11.754Z,2.83
2023-03-29T07:37:17.809Z,3.33
2023-03-29T07:42:25.336Z,2.30
2023-03-29T07:47:28.772Z,2.40
2023-03-29T07:52:31.938Z,2.80
2023-03-29T07:57:37.983Z,3.20
2023-03-29T08:02:45.532Z,3.33
2023-03-29T08:07:49.983Z,2.93
2023-03-29T08:12:53.924Z,3.43
2023-03-29T08:18:04.290Z,2.90
2023-03-29T08:23:08.707Z,2.47
2023-03-29T08:28:30.116Z,4.77
2023-03-29T08:33:33.896Z,2.80
2023-03-29T08:39:02.292Z,2.77
2023-03-29T08:44:20.914Z,2.63
2023-03-29T08:49:31.046Z,2.30
2023-03-29T08:54:41.828Z,1.87
2023-03-29T09:00:06.472Z,2.30
2023-03-29T09:05:48.332Z,2.20
2023-03-29T09:11:24.776Z,2.67
2023-03-29T09:16:46.917Z,2.03
2023-03-29T09:22:18.461Z,2.23
2023-03-29T09:27:26.875Z,2.70
2023-03-29T09:32:50.352Z,2.70
2023-03-29T09:37:56.186Z,2.20
2023-03-29T09:43:01.417Z,2.87
2023-03-29T09:48:11.926Z,2.60
2023-03-29T09:53:16.677Z,2.30
2023-03-29T09:58:31.485Z,2.33
2023-03-29T10:03:35.433Z,2.10
2023-03-29T10:08:59.724Z,2.70
2023-03-29T10:14:17.964Z,2.03
2023-03-29T10:19:35.220Z,2.93
2023-03-29T10:24:38.369Z,2.67
2023-03-29T10:29:42.767Z,2.50
2023-03-29T10:34:50.107Z,2.37
2023-03-29T10:39:54.680Z,2.50
2023-03-29T10:44:59.665Z,2.27
2023-03-29T10:50:06.174Z,2.10
2023-03-29T10:55:13.380Z,2.10
2023-03-29T11:00:39.733Z,2.40
2023-03-29T11:05:46.916Z,2.77
2023-03-29T11:10:53.128Z,2.20
2023-03-29T11:16:15.258Z,2.00
2023-03-29T11:21:56.389Z,2.13
2023-03-29T11:27:30.508Z,14.23
2023-03-29T11:33:05.339Z,1.60
2023-03-29T11:38:27.135Z,2.40
2023-03-29T11:43:57.901Z,1.77
2023-03-29T11:49:10.572Z,2.10
2023-03-29T11:54:29.129Z,1.90
2023-03-29T11:59:39.887Z,2.17
2023-03-29T12:04:47.548Z,2.17
2023-03-29T12:09:59.137Z,1.83
2023-03-29T12:15:11.521Z,1.90
2023-03-29T12:20:29.670Z,3.67
2023-03-29T12:25:53.962Z,2.17
2023-03-29T12:30:58.676Z,1.90
2023-03-29T12:36:11.133Z,2.30
2023-03-29T12:41:38.328Z,2.40
2023-03-29T12:47:04.138Z,2.60
2023-03-29T12:52:22.719Z,5.53
2023-03-29T12:57:38.335Z,5.17
2023-03-29T13:02:42.932Z,2.63
2023-03-29T13:07:48.629Z,2.90
2023-03-29T13:12:51.949Z,2.90
2023-03-29T13:18:12.254Z,2.10
2023-03-29T13:29:30.029Z,2.70
2023-03-29T13:35:02.925Z,2.40
2023-03-29T13:40:25.410Z,3.53
2023-03-29T13:45:33.121Z,9.20
2023-03-29T13:50:40.123Z,10.80
2023-03-29T13:55:48.984Z,6.20
2023-03-29T14:01:02.017Z,34.70
2023-03-29T14:06:06.619Z,6.93
2023-03-29T14:11:23.339Z,7.23
2023-03-29T14:16:29.263Z,3.60
2023-03-29T14:21:33.123Z,3.50
2023-03-29T14:26:36.224Z,3.77
2023-03-29T14:31:41.875Z,3.40
2023-03-29T14:36:46.770Z,3.80
2023-03-29T14:41:52.626Z,3.20
2023-03-29T14:46:59.501Z,4.47
2023-03-29T14:52:02.674Z,5.07
2023-03-29T14:57:07.617Z,4.50
2023-03-29T15:02:27.647Z,5.30
2023-03-29T15:07:33.571Z,6.67
2023-03-29T15:12:38.213Z,8.40
2023-03-29T15:17:50.903Z,4.83
2023-03-29T15:23:04.816Z,9.80
2023-03-29T15:28:27.353Z,8.70
2023-03-29T15:33:37.791Z,6.40
2023-03-29T15:38:44.674Z,4.03
2023-03-29T15:43:50.141Z,4.03
2023-03-29T15:48:54.078Z,3.93
2023-03-29T15:53:57.193Z,10.60
2023-03-29T15:59:02.010Z,5.60
2023-03-29T16:04:06.042Z,10.37
2023-03-29T16:09:12.285Z,5.30
2023-03-29T16:14:25.614Z,4.60
2023-03-29T16:19:29.764Z,4.73
2023-03-29T16:24:34.496Z,5.43
2023-03-29T16:29:37.784Z,11.10
2023-03-29T16:34:41.551Z,20.73
2023-03-29T16:39:45.443Z,20.23
2023-03-29T16:44:48.765Z,7.03
2023-03-29T16:49:54.957Z,6.03
2023-03-29T16:54:58.334Z,5.60
2023-03-29T17:00:01.904Z,7.40
2023-03-29T17:05:06.518Z,12.03
2023-03-29T17:10:11.171Z,8.63
2023-03-29T17:15:15.162Z,9.53
2023-03-29T17:20:18.473Z,21.33
2023-03-29T17:25:22.625Z,11.10
2023-03-29T17:30:26.270Z,9.80
2023-03-29T17:35:29.480Z,7.93
2023-03-29T17:40:37.009Z,11.67
2023-03-29T17:45:40.885Z,9.33
2023-03-29T17:50:44.269Z,9.23
2023-03-29T17:55:49.501Z,11.17
2023-03-29T18:00:52.662Z,8.27
2023-03-29T18:05:56.938Z,8.17
2023-03-29T18:11:12.038Z,16.17
2023-03-29T18:16:15.870Z,13.80
2023-03-29T18:21:19.381Z,13.23
2023-03-29T18:26:23.169Z,10.00
2023-03-29T18:31:26.613Z,9.87
2023-03-29T18:36:30.813Z,11.17
2023-03-29T18:41:35.932Z,10.23
2023-03-29T18:46:38.970Z,10.77
2023-03-29T18:51:42.481Z,11.20
2023-03-29T18:56:48.616Z,11.13
2023-03-29T19:01:52.002Z,11.10
2023-03-29T19:06:56.370Z,10.63
2023-03-29T19:11:59.322Z,12.90
2023-03-29T19:17:02.539Z,10.60
2023-03-29T19:22:05.742Z,10.97
2023-03-29T19:27:11.377Z,12.00
2023-03-29T19:32:15.791Z,11.53
2023-03-29T19:37:19.505Z,11.80
2023-03-29T19:42:22.633Z,13.27
2023-03-29T19:47:26.186Z,11.60
2023-03-29T19:52:30.558Z,10.63
2023-03-29T19:57:34.429Z,10.17
2023-03-29T20:02:37.864Z,10.03
2023-03-29T20:07:41.261Z,9.87
2023-03-29T20:12:44.763Z,10.03
2023-03-29T20:17:47.887Z,10.23
2023-03-29T20:22:54.423Z,10.57
2023-03-29T20:27:57.766Z,9.53
2023-03-29T20:33:01.301Z,10.40
2023-03-29T20:38:04.642Z,9.87
2023-03-29T20:43:13.804Z,9.73
2023-03-29T20:48:17.747Z,13.53
2023-03-29T20:53:21.439Z,10.83
2023-03-29T20:58:27.537Z,9.40
2023-03-29T21:03:30.627Z,10.30
2023-03-29T21:08:33.936Z,9.83
2023-03-29T21:13:37.439Z,9.17
2023-03-29T21:18:40.990Z,8.57
2023-03-29T21:23:44.258Z,9.10
2023-03-29T21:28:48.836Z,8.57
2023-03-29T21:33:53.486Z,9.00
2023-03-29T21:38:56.637Z,8.80
2023-03-29T21:43:59.947Z,8.13
2023-03-29T21:49:03.235Z,8.93
2023-03-29T21:54:06.640Z,8.97
2023-03-29T21:59:11.000Z,9.00
2023-03-29T22:04:22.607Z,8.50
2023-03-29T22:09:35.454Z,9.43
2023-03-29T22:14:38.500Z,8.30
2023-03-29T22:19:42.338Z,10.40
2023-03-29T22:24:45.572Z,9.67
2023-03-29T22:29:48.895Z,8.37
2023-03-29T22:34:52.013Z,8.40
2023-03-29T22:39:55.052Z,9.27
2023-03-29T22:44:58.339Z,8.97
2023-03-29T22:50:01.476Z,10.63
2023-03-29T22:55:04.930Z,9.73
2023-03-29T23:00:09.499Z,8.93
2023-03-29T23:05:12.625Z,8.93
2023-03-29T23:10:16.148Z,9.53
2023-03-29T23:15:23.127Z,8.63
2023-03-29T23:20:26.498Z,8.67
2023-03-29T23:25:30.445Z,9.17
2023-03-29T23:30:37.382Z,8.10
2023-03-29T23:35:40.594Z,8.97
2023-03-29T23:40:44.366Z,9.60
2023-03-29T23:45:47.778Z,8.13
2023-03-29T23:50:51.181Z,8.40
2023-03-29T23:55:58.536Z,8.77
